sensor_id;sensor_type;location;lat;lon;timestamp;temperature;humidity
37488;DHT22;23342;52.620;13.300;2022-07-23T00:00:49;18.00;99.90
37488;DHT22;23342;52.620;13.300;2022-07-23T00:03:14;17.90;99.90
37488;DHT22;23342;52.620;13.300;2022-07-23T00:05:40;17.90;99.90
37488;DHT22;23342;52.620;13.300;2022-07-23T00:08:06;17.90;99.90
37488;DHT22;23342;52.620;13.300;2022-07-23T00:10:32;17.90;99.90
37488;DHT22;23342;52.620;13.300;2022-07-23T00:12:57;17.90;99.90
37488;DHT22;23342;52.620;13.300;2022-07-23T00:15:23;17.90;99.90
37488;DHT22;23342;52.620;13.300;2022-07-23T00:17:49;17.90;99.90
37488;DHT22;23342;52.620;13.300;2022-07-23T00:20:14;17.80;99.90
37488;DHT22;23342;52.620;13.300;2022-07-23T00:22:50;17.80;99.90
37488;DHT22;23342;52.620;13.300;2022-07-23T00:25:16;17.70;99.90
37488;DHT22;23342;52.620;13.300;2022-07-23T00:27:42;17.70;99.90
37488;DHT22;23342;52.620;13.300;2022-07-23T00:30:08;17.60;99.90
37488;DHT22;23342;52.620;13.300;2022-07-23T00:32:48;17.60;99.90
37488;DHT22;23342;52.620;13.300;2022-07-23T00:35:14;17.60;99.90
37488;DHT22;23342;52.620;13.300;2022-07-23T00:37:40;17.50;99.90
37488;DHT22;23342;52.620;13.300;2022-07-23T00:40:06;17.50;99.90
37488;DHT22;23342;52.620;13.300;2022-07-23T00:42:32;17.40;99.90
37488;DHT22;23342;52.620;13.300;2022-07-23T00:44:58;17.20;99.90
37488;DHT22;23342;52.620;13.300;2022-07-23T00:47:23;17.30;99.90
37488;DHT22;23342;52.620;13.300;2022-07-23T00:49:49;17.30;99.90
37488;DHT22;23342;52.620;13.300;2022-07-23T00:52:14;17.30;99.90
37488;DHT22;23342;52.620;13.300;2022-07-23T00:54:41;17.20;99.90
37488;DHT22;23342;52.620;13.300;2022-07-23T00:57:08;17.20;99.90
37488;DHT22;23342;52.620;13.300;2022-07-23T00:59:34;17.20;99.90
37488;DHT22;23342;52.620;13.300;2022-07-23T01:01:59;17.10;99.90
37488;DHT22;23342;52.620;13.300;2022-07-23T01:04:25;17.20;99.90
37488;DHT22;23342;52.620;13.300;2022-07-23T01:06:50;17.20;99.90
37488;DHT22;23342;52.620;13.300;2022-07-23T01:09:16;17.20;99.90
37488;DHT22;23342;52.620;13.300;2022-07-23T01:11:42;17.10;99.90
37488;DHT22;23342;52.620;13.300;2022-07-23T01:14:12;17.10;99.90
37488;DHT22;23342;52.620;13.300;2022-07-23T01:16:38;17.20;99.90
37488;DHT22;23342;52.620;13.300;2022-07-23T01:19:03;17.10;99.90
37488;DHT22;23342;52.620;13.300;2022-07-23T01:21:35;17.10;99.90
37488;DHT22;23342;52.620;13.300;2022-07-23T01:24:01;17.00;99.90
37488;DHT22;23342;52.620;13.300;2022-07-23T01:26:26;16.90;99.90
37488;DHT22;23342;52.620;13.300;2022-07-23T01:28:51;16.80;99.90
37488;DHT22;23342;52.620;13.300;2022-07-23T01:31:17;16.70;99.90
37488;DHT22;23342;52.620;13.300;2022-07-23T01:33:44;16.70;99.90
37488;DHT22;23342;52.620;13.300;2022-07-23T01:36:10;16.70;99.90
37488;DHT22;23342;52.620;13.300;2022-07-23T01:38:35;16.80;99.90
37488;DHT22;23342;52.620;13.300;2022-07-23T01:41:01;16.70;99.90
37488;DHT22;23342;52.620;13.300;2022-07-23T01:43:26;16.70;99.90
37488;DHT22;23342;52.620;13.300;2022-07-23T01:45:52;16.70;99.90
37488;DHT22;23342;52.620;13.300;2022-07-23T01:48:17;16.60;99.90
37488;DHT22;23342;52.620;13.300;2022-07-23T01:50:43;16.50;99.90
37488;DHT22;23342;52.620;13.300;2022-07-23T01:53:08;16.50;99.90
37488;DHT22;23342;52.620;13.300;2022-07-23T01:55:34;16.50;99.90
37488;DHT22;23342;52.620;13.300;2022-07-23T01:57:59;16.50;99.90
37488;DHT22;23342;52.620;13.300;2022-07-23T02:00:25;16.60;99.90
37488;DHT22;23342;52.620;13.300;2022-07-23T02:02:50;16.60;99.90
37488;DHT22;23342;52.620;13.300;2022-07-23T02:05:16;16.50;99.90
37488;DHT22;23342;52.620;13.300;2022-07-23T02:07:41;16.50;99.90
37488;DHT22;23342;52.620;13.300;2022-07-23T02:10:08;16.50;99.90
37488;DHT22;23342;52.620;13.300;2022-07-23T02:12:33;16.60;99.90
37488;DHT22;23342;52.620;13.300;2022-07-23T02:14:59;16.60;99.90
37488;DHT22;23342;52.620;13.300;2022-07-23T02:17:24;16.60;99.90
37488;DHT22;23342;52.620;13.300;2022-07-23T02:19:50;16.60;99.90
37488;DHT22;23342;52.620;13.300;2022-07-23T02:22:15;16.60;99.90
37488;DHT22;23342;52.620;13.300;2022-07-23T02:24:41;16.60;99.90
37488;DHT22;23342;52.620;13.300;2022-07-23T02:27:06;16.60;99.90
37488;DHT22;23342;52.620;13.300;2022-07-23T02:29:32;16.70;99.90
37488;DHT22;23342;52.620;13.300;2022-07-23T02:31:57;16.70;99.90
37488;DHT22;23342;52.620;13.300;2022-07-23T02:34:23;16.70;99.90
37488;DHT22;23342;52.620;13.300;2022-07-23T02:36:48;16.70;99.90
37488;DHT22;23342;52.620;13.300;2022-07-23T02:39:14;16.80;99.90
37488;DHT22;23342;52.620;13.300;2022-07-23T02:41:39;16.70;99.90
37488;DHT22;23342;52.620;13.300;2022-07-23T02:44:05;16.70;99.90
37488;DHT22;23342;52.620;13.300;2022-07-23T02:46:30;16.70;99.90
37488;DHT22;23342;52.620;13.300;2022-07-23T02:48:56;16.80;99.90
37488;DHT22;23342;52.620;13.300;2022-07-23T02:51:21;16.80;99.90
37488;DHT22;23342;52.620;13.300;2022-07-23T02:53:47;16.80;99.90
37488;DHT22;23342;52.620;13.300;2022-07-23T02:56:12;16.80;99.90
37488;DHT22;23342;52.620;13.300;2022-07-23T02:58:38;16.70;99.90
37488;DHT22;23342;52.620;13.300;2022-07-23T03:01:03;16.80;99.90
37488;DHT22;23342;52.620;13.300;2022-07-23T03:03:29;16.80;99.90
37488;DHT22;23342;52.620;13.300;2022-07-23T03:05:54;16.90;99.90
37488;DHT22;23342;52.620;13.300;2022-07-23T03:08:20;16.80;99.90
37488;DHT22;23342;52.620;13.300;2022-07-23T03:10:45;16.90;99.90
37488;DHT22;23342;52.620;13.300;2022-07-23T03:13:11;16.90;99.90
37488;DHT22;23342;52.620;13.300;2022-07-23T03:15:36;16.80;99.90
37488;DHT22;23342;52.620;13.300;2022-07-23T03:18:02;16.90;99.90
37488;DHT22;23342;52.620;13.300;2022-07-23T03:20:27;16.80;99.90
37488;DHT22;23342;52.620;13.300;2022-07-23T03:22:52;16.80;99.90
37488;DHT22;23342;52.620;13.300;2022-07-23T03:25:18;16.80;99.90
37488;DHT22;23342;52.620;13.300;2022-07-23T03:27:43;16.80;99.90
37488;DHT22;23342;52.620;13.300;2022-07-23T03:30:11;16.80;99.90
37488;DHT22;23342;52.620;13.300;2022-07-23T03:32:37;16.90;99.90
37488;DHT22;23342;52.620;13.300;2022-07-23T03:35:03;16.90;99.90
37488;DHT22;23342;52.620;13.300;2022-07-23T03:37:29;16.90;99.90
37488;DHT22;23342;52.620;13.300;2022-07-23T03:39:54;16.90;99.90
37488;DHT22;23342;52.620;13.300;2022-07-23T03:42:20;16.90;99.90
37488;DHT22;23342;52.620;13.300;2022-07-23T03:44:45;16.80;99.90
37488;DHT22;23342;52.620;13.300;2022-07-23T03:47:11;16.80;99.90
37488;DHT22;23342;52.620;13.300;2022-07-23T03:49:36;16.90;99.90
37488;DHT22;23342;52.620;13.300;2022-07-23T03:52:02;16.90;99.90
37488;DHT22;23342;52.620;13.300;2022-07-23T03:54:28;16.90;99.90
37488;DHT22;23342;52.620;13.300;2022-07-23T03:56:53;17.00;99.90
37488;DHT22;23342;52.620;13.300;2022-07-23T03:59:19;17.00;99.90
37488;DHT22;23342;52.620;13.300;2022-07-23T04:01:44;17.00;99.90
37488;DHT22;23342;52.620;13.300;2022-07-23T04:04:10;17.00;99.90
37488;DHT22;23342;52.620;13.300;2022-07-23T04:06:35;17.10;99.90
37488;DHT22;23342;52.620;13.300;2022-07-23T04:09:02;17.10;99.90
37488;DHT22;23342;52.620;13.300;2022-07-23T04:11:27;17.10;99.90
37488;DHT22;23342;52.620;13.300;2022-07-23T04:13:53;17.10;99.90
37488;DHT22;23342;52.620;13.300;2022-07-23T04:16:18;17.20;99.90
37488;DHT22;23342;52.620;13.300;2022-07-23T04:18:44;17.10;99.90
37488;DHT22;23342;52.620;13.300;2022-07-23T04:21:09;17.10;99.90
37488;DHT22;23342;52.620;13.300;2022-07-23T04:23:35;17.10;99.90
37488;DHT22;23342;52.620;13.300;2022-07-23T04:26:01;17.00;99.90
37488;DHT22;23342;52.620;13.300;2022-07-23T04:28:26;17.00;99.90
37488;DHT22;23342;52.620;13.300;2022-07-23T04:30:52;17.00;99.90
37488;DHT22;23342;52.620;13.300;2022-07-23T04:33:17;16.80;99.90
37488;DHT22;23342;52.620;13.300;2022-07-23T04:35:43;16.70;99.90
37488;DHT22;23342;52.620;13.300;2022-07-23T04:38:09;16.60;99.90
37488;DHT22;23342;52.620;13.300;2022-07-23T04:40:34;16.50;99.90
37488;DHT22;23342;52.620;13.300;2022-07-23T04:43:00;16.50;99.90
37488;DHT22;23342;52.620;13.300;2022-07-23T04:45:25;16.50;99.90
37488;DHT22;23342;52.620;13.300;2022-07-23T04:47:51;16.60;99.90
37488;DHT22;23342;52.620;13.300;2022-07-23T04:50:17;16.60;99.90
37488;DHT22;23342;52.620;13.300;2022-07-23T04:52:47;16.50;99.90
37488;DHT22;23342;52.620;13.300;2022-07-23T04:55:12;16.50;99.90
37488;DHT22;23342;52.620;13.300;2022-07-23T04:57:38;16.40;99.90
37488;DHT22;23342;52.620;13.300;2022-07-23T05:00:04;16.30;99.90
37488;DHT22;23342;52.620;13.300;2022-07-23T05:02:29;16.20;99.90
37488;DHT22;23342;52.620;13.300;2022-07-23T05:04:55;16.20;99.90
37488;DHT22;23342;52.620;13.300;2022-07-23T05:07:20;16.20;99.90
37488;DHT22;23342;52.620;13.300;2022-07-23T05:09:46;16.20;99.90
37488;DHT22;23342;52.620;13.300;2022-07-23T05:12:12;16.20;99.90
37488;DHT22;23342;52.620;13.300;2022-07-23T05:14:37;16.20;99.90
37488;DHT22;23342;52.620;13.300;2022-07-23T05:17:03;16.20;99.90
37488;DHT22;23342;52.620;13.300;2022-07-23T05:19:28;16.20;99.90
37488;DHT22;23342;52.620;13.300;2022-07-23T05:21:54;16.20;99.90
37488;DHT22;23342;52.620;13.300;2022-07-23T05:24:19;16.00;99.90
37488;DHT22;23342;52.620;13.300;2022-07-23T05:26:44;15.90;99.90
37488;DHT22;23342;52.620;13.300;2022-07-23T05:29:10;15.90;99.90
37488;DHT22;23342;52.620;13.300;2022-07-23T05:31:35;16.00;99.90
37488;DHT22;23342;52.620;13.300;2022-07-23T05:34:01;16.00;99.90
37488;DHT22;23342;52.620;13.300;2022-07-23T05:36:26;16.00;99.90
37488;DHT22;23342;52.620;13.300;2022-07-23T05:38:52;16.00;99.90
37488;DHT22;23342;52.620;13.300;2022-07-23T05:41:18;16.10;99.90
37488;DHT22;23342;52.620;13.300;2022-07-23T05:43:43;16.10;99.90
37488;DHT22;23342;52.620;13.300;2022-07-23T05:46:09;16.00;99.90
37488;DHT22;23342;52.620;13.300;2022-07-23T05:48:34;16.10;99.90
37488;DHT22;23342;52.620;13.300;2022-07-23T05:51:00;16.10;99.90
37488;DHT22;23342;52.620;13.300;2022-07-23T05:53:26;16.10;99.90
37488;DHT22;23342;52.620;13.300;2022-07-23T05:55:51;16.00;99.90
37488;DHT22;23342;52.620;13.300;2022-07-23T05:58:17;16.00;99.90
37488;DHT22;23342;52.620;13.300;2022-07-23T06:00:42;16.00;99.90
37488;DHT22;23342;52.620;13.300;2022-07-23T06:03:08;16.10;99.90
37488;DHT22;23342;52.620;13.300;2022-07-23T06:05:33;16.10;99.90
37488;DHT22;23342;52.620;13.300;2022-07-23T06:07:59;16.00;99.90
37488;DHT22;23342;52.620;13.300;2022-07-23T06:10:24;15.90;99.90
37488;DHT22;23342;52.620;13.300;2022-07-23T06:12:50;15.90;99.90
37488;DHT22;23342;52.620;13.300;2022-07-23T06:15:16;15.90;99.90
37488;DHT22;23342;52.620;13.300;2022-07-23T06:17:41;15.80;99.90
37488;DHT22;23342;52.620;13.300;2022-07-23T06:20:08;15.90;99.90
37488;DHT22;23342;52.620;13.300;2022-07-23T06:22:35;15.90;99.90
37488;DHT22;23342;52.620;13.300;2022-07-23T06:25:00;16.00;99.90
37488;DHT22;23342;52.620;13.300;2022-07-23T06:27:26;16.10;99.90
37488;DHT22;23342;52.620;13.300;2022-07-23T06:29:51;16.10;99.90
37488;DHT22;23342;52.620;13.300;2022-07-23T06:32:17;16.10;99.90
37488;DHT22;23342;52.620;13.300;2022-07-23T06:34:42;16.20;99.90
37488;DHT22;23342;52.620;13.300;2022-07-23T06:37:08;16.20;99.90
37488;DHT22;23342;52.620;13.300;2022-07-23T06:39:33;16.30;99.90
37488;DHT22;23342;52.620;13.300;2022-07-23T06:41:59;16.40;99.90
37488;DHT22;23342;52.620;13.300;2022-07-23T06:44:26;16.40;99.90
37488;DHT22;23342;52.620;13.300;2022-07-23T06:46:52;16.40;99.90
37488;DHT22;23342;52.620;13.300;2022-07-23T06:49:18;16.40;99.90
37488;DHT22;23342;52.620;13.300;2022-07-23T06:51:43;16.40;99.90
37488;DHT22;23342;52.620;13.300;2022-07-23T06:54:09;16.40;99.90
37488;DHT22;23342;52.620;13.300;2022-07-23T06:56:34;16.40;99.90
37488;DHT22;23342;52.620;13.300;2022-07-23T06:59:00;16.30;99.90
37488;DHT22;23342;52.620;13.300;2022-07-23T07:01:25;16.30;99.90
37488;DHT22;23342;52.620;13.300;2022-07-23T07:06:19;16.50;99.90
37488;DHT22;23342;52.620;13.300;2022-07-23T07:08:45;16.50;99.90
37488;DHT22;23342;52.620;13.300;2022-07-23T07:11:11;16.60;99.90
37488;DHT22;23342;52.620;13.300;2022-07-23T07:13:37;16.60;99.90
37488;DHT22;23342;52.620;13.300;2022-07-23T07:16:04;16.60;99.90
37488;DHT22;23342;52.620;13.300;2022-07-23T07:18:29;16.70;99.90
37488;DHT22;23342;52.620;13.300;2022-07-23T07:20:56;16.70;99.90
37488;DHT22;23342;52.620;13.300;2022-07-23T07:23:22;16.60;99.90
37488;DHT22;23342;52.620;13.300;2022-07-23T07:25:48;16.70;99.90
37488;DHT22;23342;52.620;13.300;2022-07-23T07:28:13;16.70;99.90
37488;DHT22;23342;52.620;13.300;2022-07-23T07:30:39;16.70;99.90
37488;DHT22;23342;52.620;13.300;2022-07-23T07:33:05;16.70;99.90
37488;DHT22;23342;52.620;13.300;2022-07-23T07:35:30;16.70;99.90
37488;DHT22;23342;52.620;13.300;2022-07-23T07:37:58;16.70;99.90
37488;DHT22;23342;52.620;13.300;2022-07-23T07:40:24;16.80;99.90
37488;DHT22;23342;52.620;13.300;2022-07-23T07:42:52;16.80;99.90
37488;DHT22;23342;52.620;13.300;2022-07-23T07:45:23;16.90;99.90
37488;DHT22;23342;52.620;13.300;2022-07-23T07:47:49;16.90;99.90
37488;DHT22;23342;52.620;13.300;2022-07-23T07:50:15;17.00;99.90
37488;DHT22;23342;52.620;13.300;2022-07-23T07:52:41;17.00;99.90
37488;DHT22;23342;52.620;13.300;2022-07-23T07:55:08;17.10;99.90
37488;DHT22;23342;52.620;13.300;2022-07-23T07:57:34;17.20;99.90
37488;DHT22;23342;52.620;13.300;2022-07-23T08:00:00;17.30;99.90
37488;DHT22;23342;52.620;13.300;2022-07-23T08:02:25;17.40;99.90
37488;DHT22;23342;52.620;13.300;2022-07-23T08:04:51;17.50;99.90
37488;DHT22;23342;52.620;13.300;2022-07-23T08:07:17;17.50;99.90
37488;DHT22;23342;52.620;13.300;2022-07-23T08:09:42;17.50;99.90
37488;DHT22;23342;52.620;13.300;2022-07-23T08:12:08;17.60;99.90
37488;DHT22;23342;52.620;13.300;2022-07-23T08:14:34;17.70;99.90
37488;DHT22;23342;52.620;13.300;2022-07-23T08:16:59;17.70;99.90
37488;DHT22;23342;52.620;13.300;2022-07-23T08:19:25;17.80;99.90
37488;DHT22;23342;52.620;13.300;2022-07-23T08:21:51;18.00;99.90
37488;DHT22;23342;52.620;13.300;2022-07-23T08:24:16;18.10;99.90
37488;DHT22;23342;52.620;13.300;2022-07-23T08:26:42;18.30;99.90
37488;DHT22;23342;52.620;13.300;2022-07-23T08:29:08;18.40;99.90
37488;DHT22;23342;52.620;13.300;2022-07-23T08:31:33;18.50;99.90
37488;DHT22;23342;52.620;13.300;2022-07-23T08:34:00;18.50;99.90
37488;DHT22;23342;52.620;13.300;2022-07-23T08:36:25;18.60;99.90
37488;DHT22;23342;52.620;13.300;2022-07-23T08:38:58;18.60;99.90
37488;DHT22;23342;52.620;13.300;2022-07-23T08:41:23;18.70;99.90
37488;DHT22;23342;52.620;13.300;2022-07-23T08:43:49;18.70;99.90
37488;DHT22;23342;52.620;13.300;2022-07-23T08:46:14;18.80;99.90
37488;DHT22;23342;52.620;13.300;2022-07-23T08:48:43;18.90;99.90
37488;DHT22;23342;52.620;13.300;2022-07-23T08:51:11;19.00;99.90
37488;DHT22;23342;52.620;13.300;2022-07-23T08:53:37;19.20;99.90
37488;DHT22;23342;52.620;13.300;2022-07-23T08:56:05;19.40;99.90
37488;DHT22;23342;52.620;13.300;2022-07-23T08:58:31;19.40;99.90
37488;DHT22;23342;52.620;13.300;2022-07-23T09:00:58;19.40;99.90
37488;DHT22;23342;52.620;13.300;2022-07-23T09:03:26;19.50;99.90
37488;DHT22;23342;52.620;13.300;2022-07-23T09:05:53;19.80;99.90
37488;DHT22;23342;52.620;13.300;2022-07-23T09:08:20;19.70;99.90
37488;DHT22;23342;52.620;13.300;2022-07-23T09:10:55;19.70;99.90
37488;DHT22;23342;52.620;13.300;2022-07-23T09:13:28;19.90;99.90
37488;DHT22;23342;52.620;13.300;2022-07-23T09:15:56;20.10;99.90
37488;DHT22;23342;52.620;13.300;2022-07-23T09:18:40;20.20;99.90
37488;DHT22;23342;52.620;13.300;2022-07-23T09:24:00;20.40;99.90
37488;DHT22;23342;52.620;13.300;2022-07-23T09:28:18;20.70;99.90
37488;DHT22;23342;52.620;13.300;2022-07-23T09:30:44;20.40;99.90
37488;DHT22;23342;52.620;13.300;2022-07-23T09:33:15;20.40;99.90
37488;DHT22;23342;52.620;13.300;2022-07-23T09:35:50;20.40;99.90
37488;DHT22;23342;52.620;13.300;2022-07-23T09:38:16;20.30;99.90
37488;DHT22;23342;52.620;13.300;2022-07-23T09:40:44;20.30;99.90
37488;DHT22;23342;52.620;13.300;2022-07-23T09:43:10;20.30;99.90
37488;DHT22;23342;52.620;13.300;2022-07-23T09:45:35;20.40;99.90
37488;DHT22;23342;52.620;13.300;2022-07-23T09:51:56;20.60;99.90
37488;DHT22;23342;52.620;13.300;2022-07-23T09:54:59;20.60;99.90
37488;DHT22;23342;52.620;13.300;2022-07-23T09:57:26;20.50;99.90
37488;DHT22;23342;52.620;13.300;2022-07-23T09:59:52;20.60;99.90
37488;DHT22;23342;52.620;13.300;2022-07-23T10:02:18;20.90;99.90
37488;DHT22;23342;52.620;13.300;2022-07-23T10:04:44;21.30;99.90
37488;DHT22;23342;52.620;13.300;2022-07-23T10:07:11;21.60;99.90
37488;DHT22;23342;52.620;13.300;2022-07-23T10:09:39;21.90;99.90
37488;DHT22;23342;52.620;13.300;2022-07-23T10:12:10;22.00;99.90
37488;DHT22;23342;52.620;13.300;2022-07-23T10:14:41;21.90;99.90
37488;DHT22;23342;52.620;13.300;2022-07-23T10:17:08;21.60;99.90
37488;DHT22;23342;52.620;13.300;2022-07-23T10:19:34;21.60;99.90
37488;DHT22;23342;52.620;13.300;2022-07-23T10:22:30;21.60;99.90
37488;DHT22;23342;52.620;13.300;2022-07-23T10:25:27;21.50;99.90
37488;DHT22;23342;52.620;13.300;2022-07-23T10:28:32;21.50;99.90
37488;DHT22;23342;52.620;13.300;2022-07-23T10:33:50;21.50;99.90
37488;DHT22;23342;52.620;13.300;2022-07-23T10:36:28;22.20;99.90
37488;DHT22;23342;52.620;13.300;2022-07-23T10:39:03;22.70;99.90
37488;DHT22;23342;52.620;13.300;2022-07-23T10:41:38;22.80;99.90
37488;DHT22;23342;52.620;13.300;2022-07-23T10:44:15;23.00;99.90
37488;DHT22;23342;52.620;13.300;2022-07-23T10:47:02;22.80;99.90
37488;DHT22;23342;52.620;13.300;2022-07-23T10:49:40;22.60;99.90
37488;DHT22;23342;52.620;13.300;2022-07-23T10:52:25;22.60;99.90
37488;DHT22;23342;52.620;13.300;2022-07-23T10:54:54;22.60;99.90
37488;DHT22;23342;52.620;13.300;2022-07-23T10:57:22;22.40;99.90
37488;DHT22;23342;52.620;13.300;2022-07-23T11:00:11;22.20;99.90
37488;DHT22;23342;52.620;13.300;2022-07-23T11:02:39;22.10;99.90
37488;DHT22;23342;52.620;13.300;2022-07-23T11:05:08;22.00;99.90
37488;DHT22;23342;52.620;13.300;2022-07-23T11:07:35;22.00;99.90
37488;DHT22;23342;52.620;13.300;2022-07-23T11:10:02;22.20;99.90
37488;DHT22;23342;52.620;13.300;2022-07-23T11:12:32;22.30;99.90
37488;DHT22;23342;52.620;13.300;2022-07-23T11:15:12;22.50;99.90
37488;DHT22;23342;52.620;13.300;2022-07-23T11:19:30;22.70;99.90
37488;DHT22;23342;52.620;13.300;2022-07-23T11:21:56;23.00;99.90
37488;DHT22;23342;52.620;13.300;2022-07-23T11:24:23;23.40;99.90
37488;DHT22;23342;52.620;13.300;2022-07-23T11:26:59;23.70;99.90
37488;DHT22;23342;52.620;13.300;2022-07-23T11:29:46;24.10;99.90
37488;DHT22;23342;52.620;13.300;2022-07-23T11:32:23;24.50;99.90
37488;DHT22;23342;52.620;13.300;2022-07-23T11:34:50;24.90;99.90
37488;DHT22;23342;52.620;13.300;2022-07-23T11:39:55;24.90;99.90
37488;DHT22;23342;52.620;13.300;2022-07-23T11:42:20;24.60;99.90
37488;DHT22;23342;52.620;13.300;2022-07-23T11:44:47;24.50;99.90
37488;DHT22;23342;52.620;13.300;2022-07-23T11:47:13;24.40;99.90
37488;DHT22;23342;52.620;13.300;2022-07-23T11:49:52;24.20;99.90
37488;DHT22;23342;52.620;13.300;2022-07-23T11:52:18;24.00;99.90
37488;DHT22;23342;52.620;13.300;2022-07-23T11:55:01;23.80;99.90
37488;DHT22;23342;52.620;13.300;2022-07-23T11:57:33;23.70;99.90
37488;DHT22;23342;52.620;13.300;2022-07-23T12:00:20;23.50;99.90
37488;DHT22;23342;52.620;13.300;2022-07-23T12:02:51;23.40;99.90
37488;DHT22;23342;52.620;13.300;2022-07-23T12:05:22;23.30;99.90
37488;DHT22;23342;52.620;13.300;2022-07-23T12:07:50;23.40;99.90
37488;DHT22;23342;52.620;13.300;2022-07-23T12:10:25;23.40;99.90
37488;DHT22;23342;52.620;13.300;2022-07-23T12:12:55;23.50;99.90
37488;DHT22;23342;52.620;13.300;2022-07-23T12:15:27;23.80;99.90
37488;DHT22;23342;52.620;13.300;2022-07-23T12:17:54;24.20;99.90
37488;DHT22;23342;52.620;13.300;2022-07-23T12:20:22;24.70;99.90
37488;DHT22;23342;52.620;13.300;2022-07-23T12:22:50;25.10;99.90
37488;DHT22;23342;52.620;13.300;2022-07-23T12:25:21;25.40;99.90
37488;DHT22;23342;52.620;13.300;2022-07-23T12:28:00;25.60;99.90
37488;DHT22;23342;52.620;13.300;2022-07-23T12:30:29;25.70;99.90
37488;DHT22;23342;52.620;13.300;2022-07-23T12:32:57;25.60;99.90
37488;DHT22;23342;52.620;13.300;2022-07-23T12:35:31;25.50;99.90
37488;DHT22;23342;52.620;13.300;2022-07-23T12:38:01;25.30;99.90
37488;DHT22;23342;52.620;13.300;2022-07-23T12:40:51;24.80;99.90
37488;DHT22;23342;52.620;13.300;2022-07-23T12:43:23;24.50;99.90
37488;DHT22;23342;52.620;13.300;2022-07-23T12:46:12;24.70;99.90
37488;DHT22;23342;52.620;13.300;2022-07-23T12:48:51;25.00;99.90
37488;DHT22;23342;52.620;13.300;2022-07-23T12:51:27;24.90;99.90
37488;DHT22;23342;52.620;13.300;2022-07-23T12:54:08;25.00;99.90
37488;DHT22;23342;52.620;13.300;2022-07-23T12:56:39;24.60;99.90
37488;DHT22;23342;52.620;13.300;2022-07-23T12:59:10;24.20;99.90
37488;DHT22;23342;52.620;13.300;2022-07-23T13:01:37;23.90;99.90
37488;DHT22;23342;52.620;13.300;2022-07-23T13:04:09;24.10;99.90
37488;DHT22;23342;52.620;13.300;2022-07-23T13:06:40;24.30;99.90
37488;DHT22;23342;52.620;13.300;2022-07-23T13:09:09;24.50;99.90
37488;DHT22;23342;52.620;13.300;2022-07-23T13:11:35;24.40;99.90
37488;DHT22;23342;52.620;13.300;2022-07-23T13:14:01;24.50;99.90
37488;DHT22;23342;52.620;13.300;2022-07-23T13:16:30;24.40;99.90
37488;DHT22;23342;52.620;13.300;2022-07-23T13:18:56;24.30;99.90
37488;DHT22;23342;52.620;13.300;2022-07-23T13:21:23;24.30;99.90
37488;DHT22;23342;52.620;13.300;2022-07-23T13:23:48;24.10;99.90
37488;DHT22;23342;52.620;13.300;2022-07-23T13:26:14;24.10;99.90
37488;DHT22;23342;52.620;13.300;2022-07-23T13:28:40;24.20;99.90
37488;DHT22;23342;52.620;13.300;2022-07-23T13:31:05;24.40;99.90
37488;DHT22;23342;52.620;13.300;2022-07-23T13:33:34;24.40;99.90
37488;DHT22;23342;52.620;13.300;2022-07-23T13:35:59;24.30;99.90
37488;DHT22;23342;52.620;13.300;2022-07-23T13:38:26;24.10;99.90
37488;DHT22;23342;52.620;13.300;2022-07-23T13:40:52;24.20;99.90
37488;DHT22;23342;52.620;13.300;2022-07-23T13:43:20;24.40;99.90
37488;DHT22;23342;52.620;13.300;2022-07-23T13:45:47;24.60;99.90
37488;DHT22;23342;52.620;13.300;2022-07-23T13:48:13;24.70;99.90
37488;DHT22;23342;52.620;13.300;2022-07-23T13:50:40;24.60;99.90
37488;DHT22;23342;52.620;13.300;2022-07-23T13:53:14;24.70;99.90
37488;DHT22;23342;52.620;13.300;2022-07-23T13:55:41;24.60;99.90
37488;DHT22;23342;52.620;13.300;2022-07-23T13:58:08;24.70;99.90
37488;DHT22;23342;52.620;13.300;2022-07-23T14:00:36;24.70;99.90
37488;DHT22;23342;52.620;13.300;2022-07-23T14:03:02;24.80;99.90
37488;DHT22;23342;52.620;13.300;2022-07-23T14:05:28;24.90;99.90
37488;DHT22;23342;52.620;13.300;2022-07-23T14:07:54;25.00;99.90
37488;DHT22;23342;52.620;13.300;2022-07-23T14:10:21;24.90;99.90
37488;DHT22;23342;52.620;13.300;2022-07-23T14:12:48;24.70;99.90
37488;DHT22;23342;52.620;13.300;2022-07-23T14:15:14;24.40;99.90
37488;DHT22;23342;52.620;13.300;2022-07-23T14:17:42;24.40;99.90
37488;DHT22;23342;52.620;13.300;2022-07-23T14:20:09;24.80;99.90
37488;DHT22;23342;52.620;13.300;2022-07-23T14:22:35;25.50;99.90
37488;DHT22;23342;52.620;13.300;2022-07-23T14:25:01;26.10;99.90
37488;DHT22;23342;52.620;13.300;2022-07-23T14:27:29;26.60;99.90
37488;DHT22;23342;52.620;13.300;2022-07-23T14:29:55;27.20;99.90
37488;DHT22;23342;52.620;13.300;2022-07-23T14:32:21;27.60;99.90
37488;DHT22;23342;52.620;13.300;2022-07-23T14:34:47;28.00;99.90
37488;DHT22;23342;52.620;13.300;2022-07-23T14:37:13;28.10;99.90
37488;DHT22;23342;52.620;13.300;2022-07-23T14:39:41;27.90;99.90
37488;DHT22;23342;52.620;13.300;2022-07-23T14:42:07;27.30;99.90
37488;DHT22;23342;52.620;13.300;2022-07-23T14:44:34;27.40;99.90
37488;DHT22;23342;52.620;13.300;2022-07-23T14:47:01;27.90;99.90
37488;DHT22;23342;52.620;13.300;2022-07-23T14:49:28;27.90;99.90
37488;DHT22;23342;52.620;13.300;2022-07-23T14:51:54;27.60;99.90
37488;DHT22;23342;52.620;13.300;2022-07-23T14:54:19;26.90;99.90
37488;DHT22;23342;52.620;13.300;2022-07-23T14:56:45;26.50;99.90
37488;DHT22;23342;52.620;13.300;2022-07-23T14:59:12;26.30;99.90
37488;DHT22;23342;52.620;13.300;2022-07-23T15:01:40;26.10;99.90
37488;DHT22;23342;52.620;13.300;2022-07-23T15:04:06;26.20;99.90
37488;DHT22;23342;52.620;13.300;2022-07-23T15:06:32;26.50;99.90
37488;DHT22;23342;52.620;13.300;2022-07-23T15:08:58;27.50;99.90
37488;DHT22;23342;52.620;13.300;2022-07-23T15:11:26;28.30;99.90
37488;DHT22;23342;52.620;13.300;2022-07-23T15:13:52;27.90;99.90
37488;DHT22;23342;52.620;13.300;2022-07-23T15:16:18;27.30;99.90
37488;DHT22;23342;52.620;13.300;2022-07-23T15:18:43;27.20;99.90
37488;DHT22;23342;52.620;13.300;2022-07-23T15:21:09;26.90;99.90
37488;DHT22;23342;52.620;13.300;2022-07-23T15:23:34;26.40;99.90
37488;DHT22;23342;52.620;13.300;2022-07-23T15:26:00;26.00;99.90
37488;DHT22;23342;52.620;13.300;2022-07-23T15:28:26;25.90;99.90
37488;DHT22;23342;52.620;13.300;2022-07-23T15:30:51;25.70;99.90
37488;DHT22;23342;52.620;13.300;2022-07-23T15:33:18;25.60;99.90
37488;DHT22;23342;52.620;13.300;2022-07-23T15:35:44;25.40;99.90